sensor_id;sensor_type;location;lat;lon;timestamp;P1;durP1;ratioP1;P2;durP2;ratioP2
38182;SDS011;23991;52.430;10.586;2022-08-19T00:00:33;7.18;;;6.15;;
38182;SDS011;23991;52.430;10.586;2022-08-19T00:02:59;8.60;;;6.40;;
38182;SDS011;23991;52.430;10.586;2022-08-19T00:05:25;9.05;;;6.10;;
38182;SDS011;23991;52.430;10.586;2022-08-19T00:07:50;11.52;;;6.32;;
38182;SDS011;23991;52.430;10.586;2022-08-19T00:10:18;8.38;;;6.72;;
38182;SDS011;23991;52.430;10.586;2022-08-19T00:12:45;8.63;;;6.10;;
38182;SDS011;23991;52.430;10.586;2022-08-19T00:15:11;10.63;;;6.50;;
38182;SDS011;23991;52.430;10.586;2022-08-19T00:17:40;11.50;;;6.43;;
38182;SDS011;23991;52.430;10.586;2022-08-19T00:20:08;13.55;;;7.47;;
38182;SDS011;23991;52.430;10.586;2022-08-19T00:22:37;10.80;;;6.93;;
38182;SDS011;23991;52.430;10.586;2022-08-19T00:25:04;9.18;;;6.10;;
38182;SDS011;23991;52.430;10.586;2022-08-19T00:27:30;9.10;;;6.32;;
38182;SDS011;23991;52.430;10.586;2022-08-19T00:29:56;10.98;;;6.25;;
38182;SDS011;23991;52.430;10.586;2022-08-19T00:32:24;11.85;;;7.07;;
38182;SDS011;23991;52.430;10.586;2022-08-19T00:34:50;9.35;;;6.68;;
38182;SDS011;23991;52.430;10.586;2022-08-19T00:37:17;8.80;;;6.50;;
38182;SDS011;23991;52.430;10.586;2022-08-19T00:39:44;10.93;;;6.50;;
38182;SDS011;23991;52.430;10.586;2022-08-19T00:42:10;9.40;;;6.22;;
38182;SDS011;23991;52.430;10.586;2022-08-19T00:44:35;9.93;;;7.03;;
38182;SDS011;23991;52.430;10.586;2022-08-19T00:47:02;14.90;;;7.05;;
38182;SDS011;23991;52.430;10.586;2022-08-19T00:49:33;10.68;;;6.57;;
38182;SDS011;23991;52.430;10.586;2022-08-19T00:52:14;10.27;;;6.65;;
38182;SDS011;23991;52.430;10.586;2022-08-19T00:54:43;8.85;;;6.65;;
38182;SDS011;23991;52.430;10.586;2022-08-19T00:57:14;11.90;;;6.68;;
38182;SDS011;23991;52.430;10.586;2022-08-19T00:59:43;10.90;;;6.70;;
38182;SDS011;23991;52.430;10.586;2022-08-19T01:02:12;12.40;;;6.53;;
38182;SDS011;23991;52.430;10.586;2022-08-19T01:04:38;9.38;;;6.90;;
38182;SDS011;23991;52.430;10.586;2022-08-19T01:07:03;10.05;;;6.25;;
38182;SDS011;23991;52.430;10.586;2022-08-19T01:09:29;10.38;;;6.32;;
38182;SDS011;23991;52.430;10.586;2022-08-19T01:11:56;10.70;;;5.85;;
38182;SDS011;23991;52.430;10.586;2022-08-19T01:14:22;9.68;;;6.78;;
38182;SDS011;23991;52.430;10.586;2022-08-19T01:16:48;10.65;;;6.90;;
38182;SDS011;23991;52.430;10.586;2022-08-19T01:19:27;11.05;;;7.00;;
38182;SDS011;23991;52.430;10.586;2022-08-19T01:22:02;8.77;;;5.97;;
38182;SDS011;23991;52.430;10.586;2022-08-19T01:24:41;10.73;;;6.40;;
38182;SDS011;23991;52.430;10.586;2022-08-19T01:27:07;10.18;;;6.45;;
38182;SDS011;23991;52.430;10.586;2022-08-19T01:29:34;9.48;;;6.35;;
38182;SDS011;23991;52.430;10.586;2022-08-19T01:32:03;9.40;;;6.18;;
38182;SDS011;23991;52.430;10.586;2022-08-19T01:34:30;10.55;;;6.30;;
38182;SDS011;23991;52.430;10.586;2022-08-19T01:36:56;11.98;;;6.70;;
38182;SDS011;23991;52.430;10.586;2022-08-19T01:39:23;8.95;;;5.95;;
38182;SDS011;23991;52.430;10.586;2022-08-19T01:41:49;10.00;;;6.35;;
38182;SDS011;23991;52.430;10.586;2022-08-19T01:44:19;8.30;;;6.22;;
38182;SDS011;23991;52.430;10.586;2022-08-19T01:46:48;8.90;;;5.85;;
38182;SDS011;23991;52.430;10.586;2022-08-19T01:49:16;8.38;;;6.57;;
38182;SDS011;23991;52.430;10.586;2022-08-19T01:51:43;7.43;;;5.57;;
38182;SDS011;23991;52.430;10.586;2022-08-19T01:54:10;9.90;;;6.25;;
38182;SDS011;23991;52.430;10.586;2022-08-19T01:56:37;10.57;;;6.55;;
38182;SDS011;23991;52.430;10.586;2022-08-19T01:59:04;11.57;;;6.55;;
38182;SDS011;23991;52.430;10.586;2022-08-19T02:01:35;10.10;;;6.35;;
38182;SDS011;23991;52.430;10.586;2022-08-19T02:04:00;9.13;;;6.20;;
38182;SDS011;23991;52.430;10.586;2022-08-19T02:06:26;9.32;;;6.20;;
38182;SDS011;23991;52.430;10.586;2022-08-19T02:08:52;10.60;;;6.32;;
38182;SDS011;23991;52.430;10.586;2022-08-19T02:11:20;8.23;;;5.95;;
38182;SDS011;23991;52.430;10.586;2022-08-19T02:13:51;10.23;;;6.07;;
38182;SDS011;23991;52.430;10.586;2022-08-19T02:16:18;10.13;;;6.50;;
38182;SDS011;23991;52.430;10.586;2022-08-19T02:18:45;9.77;;;5.93;;
38182;SDS011;23991;52.430;10.586;2022-08-19T02:21:13;9.55;;;5.63;;
38182;SDS011;23991;52.430;10.586;2022-08-19T02:23:40;9.05;;;6.30;;
38182;SDS011;23991;52.430;10.586;2022-08-19T02:26:06;7.68;;;6.07;;
38182;SDS011;23991;52.430;10.586;2022-08-19T02:28:32;8.43;;;5.82;;
38182;SDS011;23991;52.430;10.586;2022-08-19T02:30:58;10.30;;;6.40;;
38182;SDS011;23991;52.430;10.586;2022-08-19T02:33:25;7.88;;;5.90;;
38182;SDS011;23991;52.430;10.586;2022-08-19T02:35:51;8.13;;;5.97;;
38182;SDS011;23991;52.430;10.586;2022-08-19T02:38:17;9.10;;;6.22;;
38182;SDS011;23991;52.430;10.586;2022-08-19T02:40:53;8.77;;;6.05;;
38182;SDS011;23991;52.430;10.586;2022-08-19T02:43:25;13.60;;;6.25;;
38182;SDS011;23991;52.430;10.586;2022-08-19T02:45:53;9.02;;;6.60;;
38182;SDS011;23991;52.430;10.586;2022-08-19T02:48:20;9.10;;;6.20;;
38182;SDS011;23991;52.430;10.586;2022-08-19T02:50:47;9.00;;;6.00;;
38182;SDS011;23991;52.430;10.586;2022-08-19T02:53:19;10.07;;;6.30;;
38182;SDS011;23991;52.430;10.586;2022-08-19T02:55:47;8.35;;;5.90;;
38182;SDS011;23991;52.430;10.586;2022-08-19T02:58:13;8.38;;;6.15;;
38182;SDS011;23991;52.430;10.586;2022-08-19T03:00:47;9.27;;;6.15;;
38182;SDS011;23991;52.430;10.586;2022-08-19T03:03:15;9.35;;;5.90;;
38182;SDS011;23991;52.430;10.586;2022-08-19T03:05:41;6.95;;;5.45;;
38182;SDS011;23991;52.430;10.586;2022-08-19T03:08:08;10.90;;;6.57;;
38182;SDS011;23991;52.430;10.586;2022-08-19T03:10:46;10.82;;;6.28;;
38182;SDS011;23991;52.430;10.586;2022-08-19T03:13:13;7.70;;;6.18;;
38182;SDS011;23991;52.430;10.586;2022-08-19T03:15:41;10.07;;;5.75;;
38182;SDS011;23991;52.430;10.586;2022-08-19T03:18:08;8.98;;;5.60;;
38182;SDS011;23991;52.430;10.586;2022-08-19T03:20:39;10.68;;;6.05;;
38182;SDS011;23991;52.430;10.586;2022-08-19T03:23:07;8.63;;;6.10;;
38182;SDS011;23991;52.430;10.586;2022-08-19T03:25:36;7.88;;;5.75;;
38182;SDS011;23991;52.430;10.586;2022-08-19T03:28:03;10.27;;;5.90;;
38182;SDS011;23991;52.430;10.586;2022-08-19T03:30:29;7.68;;;5.25;;
38182;SDS011;23991;52.430;10.586;2022-08-19T03:32:54;8.25;;;5.47;;
38182;SDS011;23991;52.430;10.586;2022-08-19T03:35:20;15.32;;;6.38;;
38182;SDS011;23991;52.430;10.586;2022-08-19T03:37:45;7.15;;;5.57;;
38182;SDS011;23991;52.430;10.586;2022-08-19T03:40:11;7.68;;;5.50;;
38182;SDS011;23991;52.430;10.586;2022-08-19T03:42:37;10.85;;;5.68;;
38182;SDS011;23991;52.430;10.586;2022-08-19T03:45:02;7.40;;;5.57;;
38182;SDS011;23991;52.430;10.586;2022-08-19T03:47:28;8.30;;;5.00;;
38182;SDS011;23991;52.430;10.586;2022-08-19T03:49:55;8.35;;;5.38;;
38182;SDS011;23991;52.430;10.586;2022-08-19T03:52:20;8.98;;;5.88;;
38182;SDS011;23991;52.430;10.586;2022-08-19T03:54:46;9.13;;;5.70;;
38182;SDS011;23991;52.430;10.586;2022-08-19T03:57:12;10.98;;;5.40;;
38182;SDS011;23991;52.430;10.586;2022-08-19T03:59:37;9.32;;;5.63;;
38182;SDS011;23991;52.430;10.586;2022-08-19T04:02:05;9.88;;;5.95;;
38182;SDS011;23991;52.430;10.586;2022-08-19T04:04:33;9.02;;;5.50;;
38182;SDS011;23991;52.430;10.586;2022-08-19T04:06:59;10.63;;;5.65;;
38182;SDS011;23991;52.430;10.586;2022-08-19T04:09:25;8.75;;;5.63;;
38182;SDS011;23991;52.430;10.586;2022-08-19T04:11:55;8.38;;;5.85;;
38182;SDS011;23991;52.430;10.586;2022-08-19T04:14:23;8.27;;;5.00;;
38182;SDS011;23991;52.430;10.586;2022-08-19T04:16:55;8.60;;;5.68;;
38182;SDS011;23991;52.430;10.586;2022-08-19T04:19:21;8.68;;;5.50;;
38182;SDS011;23991;52.430;10.586;2022-08-19T04:21:49;7.85;;;5.63;;
38182;SDS011;23991;52.430;10.586;2022-08-19T04:24:16;10.65;;;5.90;;
38182;SDS011;23991;52.430;10.586;2022-08-19T04:26:43;10.32;;;5.80;;
38182;SDS011;23991;52.430;10.586;2022-08-19T04:29:11;6.82;;;5.57;;
38182;SDS011;23991;52.430;10.586;2022-08-19T04:31:46;8.32;;;5.60;;
38182;SDS011;23991;52.430;10.586;2022-08-19T04:34:13;10.43;;;5.72;;
38182;SDS011;23991;52.430;10.586;2022-08-19T04:36:41;9.57;;;5.93;;
38182;SDS011;23991;52.430;10.586;2022-08-19T04:39:12;8.70;;;5.63;;
38182;SDS011;23991;52.430;10.586;2022-08-19T04:41:42;7.95;;;5.90;;
38182;SDS011;23991;52.430;10.586;2022-08-19T04:44:27;9.10;;;5.57;;
38182;SDS011;23991;52.430;10.586;2022-08-19T04:46:55;8.60;;;6.43;;
38182;SDS011;23991;52.430;10.586;2022-08-19T04:49:21;7.93;;;5.72;;
38182;SDS011;23991;52.430;10.586;2022-08-19T04:51:48;8.35;;;5.78;;
38182;SDS011;23991;52.430;10.586;2022-08-19T04:54:15;9.43;;;6.20;;
38182;SDS011;23991;52.430;10.586;2022-08-19T04:56:42;9.32;;;5.82;;
38182;SDS011;23991;52.430;10.586;2022-08-19T04:59:08;9.57;;;5.60;;
38182;SDS011;23991;52.430;10.586;2022-08-19T05:01:35;8.82;;;5.40;;
38182;SDS011;23991;52.430;10.586;2022-08-19T05:04:02;10.25;;;5.55;;
38182;SDS011;23991;52.430;10.586;2022-08-19T05:06:30;6.93;;;5.45;;
38182;SDS011;23991;52.430;10.586;2022-08-19T05:08:58;10.43;;;5.70;;
38182;SDS011;23991;52.430;10.586;2022-08-19T05:11:29;9.77;;;5.78;;
38182;SDS011;23991;52.430;10.586;2022-08-19T05:13:57;10.73;;;5.60;;
38182;SDS011;23991;52.430;10.586;2022-08-19T05:16:23;7.32;;;5.82;;
38182;SDS011;23991;52.430;10.586;2022-08-19T05:18:50;8.02;;;5.00;;
38182;SDS011;23991;52.430;10.586;2022-08-19T05:21:35;11.57;;;6.93;;
38182;SDS011;23991;52.430;10.586;2022-08-19T05:24:21;7.70;;;5.47;;
38182;SDS011;23991;52.430;10.586;2022-08-19T05:26:48;8.40;;;5.80;;
38182;SDS011;23991;52.430;10.586;2022-08-19T05:29:16;8.38;;;5.88;;
38182;SDS011;23991;52.430;10.586;2022-08-19T05:31:44;12.45;;;5.55;;
38182;SDS011;23991;52.430;10.586;2022-08-19T05:34:11;9.68;;;5.78;;
38182;SDS011;23991;52.430;10.586;2022-08-19T05:36:40;7.18;;;5.57;;
38182;SDS011;23991;52.430;10.586;2022-08-19T05:39:10;8.63;;;5.63;;
38182;SDS011;23991;52.430;10.586;2022-08-19T05:41:45;10.48;;;5.90;;
38182;SDS011;23991;52.430;10.586;2022-08-19T05:44:13;6.47;;;5.57;;
38182;SDS011;23991;52.430;10.586;2022-08-19T05:46:39;11.38;;;6.07;;
38182;SDS011;23991;52.430;10.586;2022-08-19T05:49:07;9.15;;;6.35;;
38182;SDS011;23991;52.430;10.586;2022-08-19T05:51:34;7.53;;;5.85;;
38182;SDS011;23991;52.430;10.586;2022-08-19T05:54:02;9.35;;;5.72;;
38182;SDS011;23991;52.430;10.586;2022-08-19T05:56:29;9.88;;;5.78;;
38182;SDS011;23991;52.430;10.586;2022-08-19T05:58:59;11.10;;;5.57;;
38182;SDS011;23991;52.430;10.586;2022-08-19T06:01:26;8.25;;;5.75;;
38182;SDS011;23991;52.430;10.586;2022-08-19T06:03:52;8.63;;;5.78;;
38182;SDS011;23991;52.430;10.586;2022-08-19T06:06:18;8.15;;;5.55;;
38182;SDS011;23991;52.430;10.586;2022-08-19T06:08:44;8.02;;;5.43;;
38182;SDS011;23991;52.430;10.586;2022-08-19T06:11:34;8.50;;;5.30;;
38182;SDS011;23991;52.430;10.586;2022-08-19T06:14:11;7.57;;;5.82;;
38182;SDS011;23991;52.430;10.586;2022-08-19T06:16:41;7.68;;;5.80;;
38182;SDS011;23991;52.430;10.586;2022-08-19T06:19:07;6.90;;;5.32;;
38182;SDS011;23991;52.430;10.586;2022-08-19T06:21:37;9.43;;;6.03;;
38182;SDS011;23991;52.430;10.586;2022-08-19T06:24:05;9.02;;;6.03;;
38182;SDS011;23991;52.430;10.586;2022-08-19T06:26:33;7.65;;;5.10;;
38182;SDS011;23991;52.430;10.586;2022-08-19T06:29:00;7.43;;;5.45;;
38182;SDS011;23991;52.430;10.586;2022-08-19T06:31:26;8.15;;;5.40;;
38182;SDS011;23991;52.430;10.586;2022-08-19T06:33:56;8.60;;;5.35;;
38182;SDS011;23991;52.430;10.586;2022-08-19T06:36:23;10.55;;;5.78;;
38182;SDS011;23991;52.430;10.586;2022-08-19T06:38:58;9.48;;;6.32;;
38182;SDS011;23991;52.430;10.586;2022-08-19T06:41:37;9.93;;;5.60;;
38182;SDS011;23991;52.430;10.586;2022-08-19T06:44:05;8.88;;;4.80;;
38182;SDS011;23991;52.430;10.586;2022-08-19T06:46:31;7.07;;;5.57;;
38182;SDS011;23991;52.430;10.586;2022-08-19T06:48:57;11.60;;;5.80;;
38182;SDS011;23991;52.430;10.586;2022-08-19T06:51:23;8.63;;;5.55;;
38182;SDS011;23991;52.430;10.586;2022-08-19T06:53:50;9.23;;;5.00;;
38182;SDS011;23991;52.430;10.586;2022-08-19T06:56:18;20.52;;;5.30;;
38182;SDS011;23991;52.430;10.586;2022-08-19T06:58:45;9.73;;;5.55;;
38182;SDS011;23991;52.430;10.586;2022-08-19T07:01:13;7.97;;;4.82;;
38182;SDS011;23991;52.430;10.586;2022-08-19T07:03:38;8.10;;;5.03;;
38182;SDS011;23991;52.430;10.586;2022-08-19T07:06:09;7.00;;;5.15;;
38182;SDS011;23991;52.430;10.586;2022-08-19T07:08:39;8.23;;;4.82;;
38182;SDS011;23991;52.430;10.586;2022-08-19T07:11:09;7.32;;;4.65;;
38182;SDS011;23991;52.430;10.586;2022-08-19T07:13:38;8.30;;;5.13;;
38182;SDS011;23991;52.430;10.586;2022-08-19T07:16:08;5.40;;;4.60;;
38182;SDS011;23991;52.430;10.586;2022-08-19T07:18:35;7.57;;;5.03;;
38182;SDS011;23991;52.430;10.586;2022-08-19T07:21:11;10.02;;;4.90;;
38182;SDS011;23991;52.430;10.586;2022-08-19T07:23:38;7.80;;;4.95;;
38182;SDS011;23991;52.430;10.586;2022-08-19T07:26:06;5.82;;;4.88;;
38182;SDS011;23991;52.430;10.586;2022-08-19T07:28:37;6.80;;;4.45;;
38182;SDS011;23991;52.430;10.586;2022-08-19T07:31:06;7.18;;;4.20;;
38182;SDS011;23991;52.430;10.586;2022-08-19T07:33:32;6.03;;;4.50;;
38182;SDS011;23991;52.430;10.586;2022-08-19T07:36:01;7.40;;;4.77;;
38182;SDS011;23991;52.430;10.586;2022-08-19T07:38:29;9.70;;;4.90;;
38182;SDS011;23991;52.430;10.586;2022-08-19T07:40:54;7.47;;;4.57;;
38182;SDS011;23991;52.430;10.586;2022-08-19T07:43:20;11.10;;;4.45;;
38182;SDS011;23991;52.430;10.586;2022-08-19T07:45:50;9.23;;;4.65;;
38182;SDS011;23991;52.430;10.586;2022-08-19T07:48:17;7.75;;;4.93;;
38182;SDS011;23991;52.430;10.586;2022-08-19T07:50:43;5.45;;;4.45;;
38182;SDS011;23991;52.430;10.586;2022-08-19T07:53:09;6.25;;;4.55;;
38182;SDS011;23991;52.430;10.586;2022-08-19T07:55:37;4.88;;;4.10;;
38182;SDS011;23991;52.430;10.586;2022-08-19T07:58:02;7.63;;;4.50;;
38182;SDS011;23991;52.430;10.586;2022-08-19T08:00:29;5.63;;;4.60;;
38182;SDS011;23991;52.430;10.586;2022-08-19T08:02:55;8.45;;;4.80;;
38182;SDS011;23991;52.430;10.586;2022-08-19T08:05:20;6.28;;;4.40;;
38182;SDS011;23991;52.430;10.586;2022-08-19T08:08:06;6.95;;;4.18;;
38182;SDS011;23991;52.430;10.586;2022-08-19T08:11:06;6.18;;;4.30;;
38182;SDS011;23991;52.430;10.586;2022-08-19T08:13:32;5.93;;;4.15;;
38182;SDS011;23991;52.430;10.586;2022-08-19T08:16:00;6.13;;;3.88;;
38182;SDS011;23991;52.430;10.586;2022-08-19T08:18:27;5.40;;;4.30;;
38182;SDS011;23991;52.430;10.586;2022-08-19T08:20:53;6.95;;;4.30;;
38182;SDS011;23991;52.430;10.586;2022-08-19T08:23:19;6.88;;;4.20;;
38182;SDS011;23991;52.430;10.586;2022-08-19T08:25:49;7.57;;;4.13;;
38182;SDS011;23991;52.430;10.586;2022-08-19T08:28:16;6.72;;;3.97;;
38182;SDS011;23991;52.430;10.586;2022-08-19T08:30:42;9.38;;;4.68;;
38182;SDS011;23991;52.430;10.586;2022-08-19T08:33:08;6.63;;;4.32;;
38182;SDS011;23991;52.430;10.586;2022-08-19T08:35:35;4.90;;;3.92;;
38182;SDS011;23991;52.430;10.586;2022-08-19T08:38:01;5.63;;;4.07;;
38182;SDS011;23991;52.430;10.586;2022-08-19T08:40:30;7.57;;;4.38;;
38182;SDS011;23991;52.430;10.586;2022-08-19T08:46:09;5.50;;;4.05;;
38182;SDS011;23991;52.430;10.586;2022-08-19T08:48:56;5.88;;;3.90;;
38182;SDS011;23991;52.430;10.586;2022-08-19T08:51:29;9.13;;;3.88;;
38182;SDS011;23991;52.430;10.586;2022-08-19T08:53:59;6.93;;;3.55;;
38182;SDS011;23991;52.430;10.586;2022-08-19T08:56:26;5.88;;;3.67;;
38182;SDS011;23991;52.430;10.586;2022-08-19T09:01:33;7.38;;;4.00;;
38182;SDS011;23991;52.430;10.586;2022-08-19T09:03:59;5.30;;;3.60;;
38182;SDS011;23991;52.430;10.586;2022-08-19T09:06:29;6.38;;;4.43;;
38182;SDS011;23991;52.430;10.586;2022-08-19T09:09:17;5.28;;;3.22;;
38182;SDS011;23991;52.430;10.586;2022-08-19T09:12:16;5.47;;;3.53;;
38182;SDS011;23991;52.430;10.586;2022-08-19T09:15:03;5.32;;;3.60;;
38182;SDS011;23991;52.430;10.586;2022-08-19T09:17:32;7.18;;;3.65;;
38182;SDS011;23991;52.430;10.586;2022-08-19T09:22:33;4.95;;;3.50;;
38182;SDS011;23991;52.430;10.586;2022-08-19T09:25:00;5.85;;;3.25;;
38182;SDS011;23991;52.430;10.586;2022-08-19T09:27:27;5.65;;;3.80;;
38182;SDS011;23991;52.430;10.586;2022-08-19T09:29:53;5.00;;;3.10;;
38182;SDS011;23991;52.430;10.586;2022-08-19T09:32:20;4.88;;;3.80;;
38182;SDS011;23991;52.430;10.586;2022-08-19T09:34:47;7.07;;;3.90;;
38182;SDS011;23991;52.430;10.586;2022-08-19T09:37:13;5.78;;;4.25;;
38182;SDS011;23991;52.430;10.586;2022-08-19T09:39:39;6.70;;;3.58;;
38182;SDS011;23991;52.430;10.586;2022-08-19T09:42:06;8.32;;;4.10;;
38182;SDS011;23991;52.430;10.586;2022-08-19T09:44:37;4.95;;;3.60;;
38182;SDS011;23991;52.430;10.586;2022-08-19T09:47:03;5.60;;;3.65;;
38182;SDS011;23991;52.430;10.586;2022-08-19T09:49:29;5.72;;;3.72;;
38182;SDS011;23991;52.430;10.586;2022-08-19T09:51:55;5.55;;;4.03;;
38182;SDS011;23991;52.430;10.586;2022-08-19T09:54:22;6.20;;;3.85;;
38182;SDS011;23991;52.430;10.586;2022-08-19T09:56:48;5.88;;;3.50;;
38182;SDS011;23991;52.430;10.586;2022-08-19T09:59:14;5.57;;;3.67;;
38182;SDS011;23991;52.430;10.586;2022-08-19T10:01:39;5.32;;;3.50;;
38182;SDS011;23991;52.430;10.586;2022-08-19T10:04:05;7.63;;;4.28;;
38182;SDS011;23991;52.430;10.586;2022-08-19T10:06:35;6.53;;;4.40;;
38182;SDS011;23991;52.430;10.586;2022-08-19T10:09:03;6.53;;;4.25;;
38182;SDS011;23991;52.430;10.586;2022-08-19T10:11:31;7.75;;;3.88;;
38182;SDS011;23991;52.430;10.586;2022-08-19T10:13:57;5.45;;;3.85;;
38182;SDS011;23991;52.430;10.586;2022-08-19T10:16:23;8.25;;;4.32;;
38182;SDS011;23991;52.430;10.586;2022-08-19T10:18:50;6.00;;;3.88;;
38182;SDS011;23991;52.430;10.586;2022-08-19T10:21:21;6.35;;;4.25;;
38182;SDS011;23991;52.430;10.586;2022-08-19T10:23:50;6.38;;;4.32;;
38182;SDS011;23991;52.430;10.586;2022-08-19T10:26:22;6.63;;;4.22;;
38182;SDS011;23991;52.430;10.586;2022-08-19T10:28:50;6.80;;;4.00;;
38182;SDS011;23991;52.430;10.586;2022-08-19T10:31:17;6.70;;;3.83;;
38182;SDS011;23991;52.430;10.586;2022-08-19T10:33:48;5.65;;;3.80;;
38182;SDS011;23991;52.430;10.586;2022-08-19T10:36:15;7.53;;;4.30;;
38182;SDS011;23991;52.430;10.586;2022-08-19T10:38:43;7.03;;;4.05;;
38182;SDS011;23991;52.430;10.586;2022-08-19T10:41:11;6.78;;;4.30;;
38182;SDS011;23991;52.430;10.586;2022-08-19T10:43:39;5.63;;;4.45;;
38182;SDS011;23991;52.430;10.586;2022-08-19T10:46:06;5.53;;;3.65;;
38182;SDS011;23991;52.430;10.586;2022-08-19T10:48:33;4.80;;;4.03;;
38182;SDS011;23991;52.430;10.586;2022-08-19T10:50:59;5.50;;;3.63;;
38182;SDS011;23991;52.430;10.586;2022-08-19T10:53:44;7.95;;;3.97;;
38182;SDS011;23991;52.430;10.586;2022-08-19T10:56:09;5.47;;;3.70;;
38182;SDS011;23991;52.430;10.586;2022-08-19T10:58:58;6.13;;;3.70;;
38182;SDS011;23991;52.430;10.586;2022-08-19T11:01:25;7.55;;;3.85;;
38182;SDS011;23991;52.430;10.586;2022-08-19T11:03:52;6.18;;;4.20;;
38182;SDS011;23991;52.430;10.586;2022-08-19T11:06:18;5.70;;;4.13;;
38182;SDS011;23991;52.430;10.586;2022-08-19T11:08:45;7.70;;;5.55;;
38182;SDS011;23991;52.430;10.586;2022-08-19T11:11:11;11.63;;;5.43;;
38182;SDS011;23991;52.430;10.586;2022-08-19T11:13:38;8.02;;;5.20;;
38182;SDS011;23991;52.430;10.586;2022-08-19T11:16:10;7.28;;;4.47;;
38182;SDS011;23991;52.430;10.586;2022-08-19T11:18:42;6.55;;;3.97;;
38182;SDS011;23991;52.430;10.586;2022-08-19T11:21:17;6.60;;;4.50;;
38182;SDS011;23991;52.430;10.586;2022-08-19T11:23:46;5.50;;;4.28;;
38182;SDS011;23991;52.430;10.586;2022-08-19T11:26:13;6.05;;;4.00;;
38182;SDS011;23991;52.430;10.586;2022-08-19T11:28:40;5.15;;;3.85;;
38182;SDS011;23991;52.430;10.586;2022-08-19T11:31:10;6.82;;;4.45;;
38182;SDS011;23991;52.430;10.586;2022-08-19T11:33:40;6.82;;;3.80;;
38182;SDS011;23991;52.430;10.586;2022-08-19T11:36:07;4.90;;;3.90;;
38182;SDS011;23991;52.430;10.586;2022-08-19T11:38:34;8.02;;;4.57;;
38182;SDS011;23991;52.430;10.586;2022-08-19T11:41:01;7.00;;;4.18;;
38182;SDS011;23991;52.430;10.586;2022-08-19T11:43:28;5.78;;;4.20;;
38182;SDS011;23991;52.430;10.586;2022-08-19T11:45:55;7.40;;;4.32;;
38182;SDS011;23991;52.430;10.586;2022-08-19T11:48:22;6.30;;;4.43;;
38182;SDS011;23991;52.430;10.586;2022-08-19T11:50:48;6.43;;;4.32;;
38182;SDS011;23991;52.430;10.586;2022-08-19T11:53:15;6.50;;;4.35;;
38182;SDS011;23991;52.430;10.586;2022-08-19T11:55:41;5.65;;;4.10;;
38182;SDS011;23991;52.430;10.586;2022-08-19T11:58:08;7.05;;;4.30;;
38182;SDS011;23991;52.430;10.586;2022-08-19T12:00:34;5.10;;;4.47;;
38182;SDS011;23991;52.430;10.586;2022-08-19T12:03:01;4.22;;;3.47;;
38182;SDS011;23991;52.430;10.586;2022-08-19T12:05:27;5.85;;;4.28;;
38182;SDS011;23991;52.430;10.586;2022-08-19T12:07:53;4.20;;;3.80;;
38182;SDS011;23991;52.430;10.586;2022-08-19T12:10:19;4.43;;;3.80;;
38182;SDS011;23991;52.430;10.586;2022-08-19T12:12:45;5.55;;;4.03;;
38182;SDS011;23991;52.430;10.586;2022-08-19T12:15:11;5.40;;;4.53;;
38182;SDS011;23991;52.430;10.586;2022-08-19T12:17:39;5.43;;;4.30;;
38182;SDS011;23991;52.430;10.586;2022-08-19T12:20:10;4.90;;;4.03;;
38182;SDS011;23991;52.430;10.586;2022-08-19T12:22:39;4.05;;;3.40;;
38182;SDS011;23991;52.430;10.586;2022-08-19T12:25:11;5.05;;;4.00;;
38182;SDS011;23991;52.430;10.586;2022-08-19T12:27:37;4.53;;;3.63;;
38182;SDS011;23991;52.430;10.586;2022-08-19T12:30:04;5.68;;;3.42;;
38182;SDS011;23991;52.430;10.586;2022-08-19T12:32:31;5.53;;;3.95;;
38182;SDS011;23991;52.430;10.586;2022-08-19T12:34:57;5.95;;;4.35;;
38182;SDS011;23991;52.430;10.586;2022-08-19T12:37:23;5.28;;;3.88;;
38182;SDS011;23991;52.430;10.586;2022-08-19T12:39:48;4.75;;;3.78;;
38182;SDS011;23991;52.430;10.586;2022-08-19T12:42:14;4.55;;;3.65;;
38182;SDS011;23991;52.430;10.586;2022-08-19T12:44:41;5.13;;;4.30;;
38182;SDS011;23991;52.430;10.586;2022-08-19T12:47:08;5.32;;;4.00;;
38182;SDS011;23991;52.430;10.586;2022-08-19T12:49:34;4.40;;;3.63;;
38182;SDS011;23991;52.430;10.586;2022-08-19T12:52:02;5.47;;;4.13;;
38182;SDS011;23991;52.430;10.586;2022-08-19T12:54:29;4.93;;;3.85;;
38182;SDS011;23991;52.430;10.586;2022-08-19T12:56:55;4.80;;;3.50;;
38182;SDS011;23991;52.430;10.586;2022-08-19T12:59:24;4.20;;;3.50;;
38182;SDS011;23991;52.430;10.586;2022-08-19T13:01:50;5.03;;;3.33;;
38182;SDS011;23991;52.430;10.586;2022-08-19T13:04:16;4.07;;;3.20;;
38182;SDS011;23991;52.430;10.586;2022-08-19T13:06:41;9.50;;;3.67;;
38182;SDS011;23991;52.430;10.586;2022-08-19T13:09:07;4.07;;;3.00;;
38182;SDS011;23991;52.430;10.586;2022-08-19T13:11:33;4.45;;;3.63;;
38182;SDS011;23991;52.430;10.586;2022-08-19T13:14:00;5.60;;;3.35;;
38182;SDS011;23991;52.430;10.586;2022-08-19T13:16:27;5.78;;;3.70;;
38182;SDS011;23991;52.430;10.586;2022-08-19T13:18:54;6.20;;;3.72;;
38182;SDS011;23991;52.430;10.586;2022-08-19T13:21:21;4.70;;;4.00;;
38182;SDS011;23991;52.430;10.586;2022-08-19T13:23:50;4.57;;;3.83;;
38182;SDS011;23991;52.430;10.586;2022-08-19T13:26:16;4.82;;;3.85;;
38182;SDS011;23991;52.430;10.586;2022-08-19T13:28:43;5.80;;;3.45;;
38182;SDS011;23991;52.430;10.586;2022-08-19T13:31:30;4.18;;;3.53;;
38182;SDS011;23991;52.430;10.586;2022-08-19T13:34:16;4.40;;;3.92;;
38182;SDS011;23991;52.430;10.586;2022-08-19T13:36:45;6.07;;;3.95;;
38182;SDS011;23991;52.430;10.586;2022-08-19T13:39:11;5.43;;;4.25;;
38182;SDS011;23991;52.430;10.586;2022-08-19T13:41:42;5.97;;;3.72;;
38182;SDS011;23991;52.430;10.586;2022-08-19T13:44:13;6.00;;;3.97;;
38182;SDS011;23991;52.430;10.586;2022-08-19T13:46:43;4.10;;;3.50;;
38182;SDS011;23991;52.430;10.586;2022-08-19T13:49:10;4.10;;;3.28;;
38182;SDS011;23991;52.430;10.586;2022-08-19T13:51:37;7.43;;;4.15;;
38182;SDS011;23991;52.430;10.586;2022-08-19T13:54:07;4.32;;;3.75;;
38182;SDS011;23991;52.430;10.586;2022-08-19T13:56:34;4.68;;;3.58;;
38182;SDS011;23991;52.430;10.586;2022-08-19T13:59:00;4.88;;;3.80;;
38182;SDS011;23991;52.430;10.586;2022-08-19T14:01:26;6.13;;;3.85;;
38182;SDS011;23991;52.430;10.586;2022-08-19T14:03:52;4.75;;;3.85;;
38182;SDS011;23991;52.430;10.586;2022-08-19T14:06:18;5.03;;;3.67;;
38182;SDS011;23991;52.430;10.586;2022-08-19T14:08:46;6.47;;;3.83;;
38182;SDS011;23991;52.430;10.586;2022-08-19T14:11:11;4.07;;;3.58;;
38182;SDS011;23991;52.430;10.586;2022-08-19T14:13:37;4.88;;;3.42;;
38182;SDS011;23991;52.430;10.586;2022-08-19T14:16:07;5.18;;;4.00;;
38182;SDS011;23991;52.430;10.586;2022-08-19T14:18:34;5.25;;;3.80;;
38182;SDS011;23991;52.430;10.586;2022-08-19T14:20:59;5.05;;;4.30;;
38182;SDS011;23991;52.430;10.586;2022-08-19T14:23:25;5.05;;;3.47;;
38182;SDS011;23991;52.430;10.586;2022-08-19T14:25:51;4.63;;;3.70;;
38182;SDS011;23991;52.430;10.586;2022-08-19T14:28:17;4.75;;;3.45;;
38182;SDS011;23991;52.430;10.586;2022-08-19T14:30:43;4.90;;;3.78;;
38182;SDS011;23991;52.430;10.586;2022-08-19T14:33:09;7.85;;;4.00;;
38182;SDS011;23991;52.430;10.586;2022-08-19T14:35:35;4.28;;;3.40;;
38182;SDS011;23991;52.430;10.586;2022-08-19T14:38:02;3.90;;;3.50;;
38182;SDS011;23991;52.430;10.586;2022-08-19T14:40:30;5.80;;;3.72;;
38182;SDS011;23991;52.430;10.586;2022-08-19T14:42:56;3.50;;;3.08;;
38182;SDS011;23991;52.430;10.586;2022-08-19T14:45:27;5.97;;;3.90;;
38182;SDS011;23991;52.430;10.586;2022-08-19T14:47:53;4.07;;;3.45;;